Terminal Aerodrome Forecast
Issued by NWS

Home | Current Version | Previous Version | Text Only | Print | Product List | Glossary On
Versions: 1 2 3 4 5 6 7 8 9 10 11 12 13 14 15 16
000
FTAK31 PAJN 302338
TAFAJN
TAF
PAJN 302338Z 0100/0124 12025G35KT P6SM -RA FEW010 BKN035 OVC050
      WS020/14045KT
      TEMPO 0100/0104 4SM RA BR FEW008 OVC025
     FM010400 10012KT P6SM -SHRA SCT025 OVC040
      TEMPO 0104/0108 12012G20KT 5SM -SHRA SCT010 OVC025
     FM012100 07010KT 6SM -RA BR SCT010 BKN025 OVC040=

USA.gov is the U.S. government's official web portal to all federal, state and local government web resources and services.